PWSweather.com
Personal Weather Stations
Station Observations
KCOGRAND2
Redlands, Southcamp Road & Dakota Circle, Grand Junction, CO 81507

Redlands, Southcamp Road & Dakota CircleGrand Junction, CO 81507

Lat: 39.055, Lon: -108.637

Elevation: 4870

Station Type: RadioShack WX200

Latest ConditionsUpdated 11:40:40 AM MDT Thursday, Sep 18, 2014
Currently Today's Max Today's Min Today's Average
Temperature 77.2°F25.1°C 78.1°F25.6°C 57.6°F14.2°C 65.5°F18.6°C
Dew Point -5537.2°C 35.8°F2.1°C 21.4°F-5.9°C 30.6°F-0.8°C
Winds 4.0 mph N6.4 kmh N 8.0 mph N12.9 kmh N - 2.7 mph 4.3 kmh
Wind Gusts 6.9 mph11.1 kmh 12.1 mph19.5 kmh - -
Humidity - 43% 12% 28%
Pressure 25.07 in849.0 mb 25.07 in849.0 mb 25.04 in848.0 mb -
Hour Temp Dew Point Humidity Winds Wind Gusts Pressure Precip Precip Rate Daily Precip Total
11:40 AM 77.2°F25.1°C -5537.2°C - 4.0 mph N6.4 kmh N 6.9 mph11.1 kmh 25.07 in849.0 mb 0.00 in0.0 mm 0.00 in/hr0.0 mm/hr 0.00 in0.0 mm
11:35 AM 78.1°F25.6°C 21.4°F-5.9°C 12% 4.0 mph 6.4 kmh 6.9 mph11.1 kmh 25.07 in849.0 mb 0.00 in0.0 mm 0.00 in/hr0.0 mm/hr 0.00 in0.0 mm
11:30 AM 76.6°F24.8°C 22.1°F-5.5°C 13% 5.0 mph N8.0 kmh N 8.3 mph13.4 kmh 25.07 in849.0 mb 0.00 in0.0 mm 0.00 in/hr0.0 mm/hr 0.00 in0.0 mm
11:25 AM 76.3°F24.6°C 21.7°F-5.7°C 13% 5.0 mph N8.0 kmh N 6.9 mph11.1 kmh 25.07 in849.0 mb 0.00 in0.0 mm 0.00 in/hr0.0 mm/hr 0.00 in0.0 mm
11:20 AM 76.5°F24.7°C 21.9°F-5.6°C 13% 4.0 mph N6.4 kmh N 9.6 mph15.4 kmh 25.07 in849.0 mb 0.00 in0.0 mm 0.00 in/hr0.0 mm/hr 0.00 in0.0 mm
11:15 AM 77.4°F25.2°C 22.6°F-5.2°C 13% 4.0 mph N6.4 kmh N 7.8 mph12.6 kmh 25.07 in849.0 mb 0.00 in0.0 mm 0.00 in/hr0.0 mm/hr 0.00 in0.0 mm
11:10 AM 76.3°F24.6°C 21.7°F-5.7°C 13% 4.0 mph N6.4 kmh N 6.3 mph10.1 kmh 25.07 in849.0 mb 0.00 in0.0 mm 0.00 in/hr0.0 mm/hr 0.00 in0.0 mm
11:05 AM 75.4°F24.1°C 24.4°F-4.2°C 15% 5.0 mph NNW8.0 kmh NNW 8.7 mph14.0 kmh 25.07 in849.0 mb 0.00 in0.0 mm 0.00 in/hr0.0 mm/hr 0.00 in0.0 mm
11:00 AM 74.7°F23.7°C 23.9°F-4.5°C 15% 5.0 mph NNW8.0 kmh NNW 7.8 mph12.6 kmh 25.07 in849.0 mb 0.00 in0.0 mm 0.00 in/hr0.0 mm/hr 0.00 in0.0 mm
10:55 AM 74.5°F23.6°C 23.7°F-4.6°C 15% 5.0 mph NNW8.0 kmh NNW 9.6 mph15.4 kmh 25.07 in849.0 mb 0.00 in0.0 mm 0.00 in/hr0.0 mm/hr 0.00 in0.0 mm
10:50 AM 74.7°F23.7°C 23.9°F-4.5°C 15% 4.0 mph N6.4 kmh N 7.8 mph12.6 kmh 25.07 in849.0 mb 0.00 in0.0 mm 0.00 in/hr0.0 mm/hr 0.00 in0.0 mm
10:45 AM 75.0°F23.9°C 24.3°F-4.3°C 15% 4.0 mph N6.4 kmh N 6.7 mph10.8 kmh 25.07 in849.0 mb 0.00 in0.0 mm 0.00 in/hr0.0 mm/hr 0.00 in0.0 mm
10:40 AM 74.3°F23.5°C 28.0°F-2.2°C 18% 3.0 mph N4.8 kmh N 8.7 mph14.0 kmh 25.07 in849.0 mb 0.00 in0.0 mm 0.00 in/hr0.0 mm/hr 0.00 in0.0 mm
10:35 AM 73.8°F23.2°C 31.5°F-0.3°C 21% 4.0 mph NNW6.4 kmh NNW 7.4 mph11.9 kmh 25.07 in849.0 mb 0.00 in0.0 mm 0.00 in/hr0.0 mm/hr 0.00 in0.0 mm
10:30 AM 73.0°F22.8°C 27.0°F-2.8°C 18% 4.0 mph NNW6.4 kmh NNW 6.9 mph11.1 kmh 25.07 in849.0 mb 0.00 in0.0 mm 0.00 in/hr0.0 mm/hr 0.00 in0.0 mm
10:25 AM 72.9°F22.7°C 30.6°F-0.8°C 21% 4.0 mph NW6.4 kmh NW 6.9 mph11.1 kmh 25.07 in849.0 mb 0.00 in0.0 mm 0.00 in/hr0.0 mm/hr 0.00 in0.0 mm
10:20 AM 72.5°F22.5°C 31.5°F-0.3°C 22% 5.0 mph NNW8.0 kmh NNW 7.8 mph12.6 kmh 25.07 in849.0 mb 0.00 in0.0 mm 0.00 in/hr0.0 mm/hr 0.00 in0.0 mm
10:15 AM 72.0°F22.2°C 31.1°F-0.5°C 22% 5.0 mph NNW8.0 kmh NNW 9.6 mph15.4 kmh 25.07 in849.0 mb 0.00 in0.0 mm 0.00 in/hr0.0 mm/hr 0.00 in0.0 mm
10:10 AM 72.1°F22.3°C 31.1°F-0.5°C 22% 5.0 mph N8.0 kmh N 9.6 mph15.4 kmh 25.07 in849.0 mb 0.00 in0.0 mm 0.00 in/hr0.0 mm/hr 0.00 in0.0 mm
10:05 AM 71.8°F22.1°C 30.9°F-0.6°C 22% 5.0 mph N8.0 kmh N 9.2 mph14.8 kmh 25.07 in849.0 mb 0.00 in0.0 mm 0.00 in/hr0.0 mm/hr 0.00 in0.0 mm
10:00 AM 71.8°F22.1°C 30.9°F-0.6°C 22% 5.0 mph N8.0 kmh N 8.7 mph14.0 kmh 25.07 in849.0 mb 0.00 in0.0 mm 0.00 in/hr0.0 mm/hr 0.00 in0.0 mm
09:55 AM 70.9°F21.6°C 30.2°F-1.0°C 22% 6.0 mph N9.7 kmh N 7.4 mph11.9 kmh 25.07 in849.0 mb 0.00 in0.0 mm 0.00 in/hr0.0 mm/hr 0.00 in0.0 mm
09:50 AM 70.7°F21.5°C 31.1°F-0.5°C 23% 6.0 mph N9.7 kmh N 11.0 mph17.7 kmh 25.07 in849.0 mb 0.00 in0.0 mm 0.00 in/hr0.0 mm/hr 0.00 in0.0 mm
09:45 AM 70.5°F21.4°C 30.9°F-0.6°C 23% 6.0 mph N9.7 kmh N 8.7 mph14.0 kmh 25.07 in849.0 mb 0.00 in0.0 mm 0.00 in/hr0.0 mm/hr 0.00 in0.0 mm
09:40 AM 70.5°F21.4°C 30.9°F-0.6°C 23% 6.0 mph N9.7 kmh N 9.2 mph14.8 kmh 25.07 in849.0 mb 0.00 in0.0 mm 0.00 in/hr0.0 mm/hr 0.00 in0.0 mm
09:35 AM 70.0°F21.1°C 30.6°F-0.8°C 23% 6.0 mph NNW9.7 kmh NNW 9.2 mph14.8 kmh 25.07 in849.0 mb 0.00 in0.0 mm 0.00 in/hr0.0 mm/hr 0.00 in0.0 mm
09:30 AM 69.4°F20.8°C 30.0°F-1.1°C 23% 6.0 mph NW9.7 kmh NW 8.3 mph13.4 kmh 25.07 in849.0 mb 0.00 in0.0 mm 0.00 in/hr0.0 mm/hr 0.00 in0.0 mm
09:25 AM 68.9°F20.5°C 29.7°F-1.3°C 23% 6.0 mph NW9.7 kmh NW 10.1 mph16.3 kmh 25.07 in849.0 mb 0.00 in0.0 mm 0.00 in/hr0.0 mm/hr 0.00 in0.0 mm
09:20 AM 68.7°F20.4°C 30.4°F-0.9°C 24% 8.0 mph N12.9 kmh N 12.1 mph19.5 kmh 25.07 in849.0 mb 0.00 in0.0 mm 0.00 in/hr0.0 mm/hr 0.00 in0.0 mm
09:15 AM 68.5°F20.3°C 30.4°F-0.9°C 24% 7.0 mph N11.3 kmh N 11.6 mph18.7 kmh 25.07 in849.0 mb 0.00 in0.0 mm 0.00 in/hr0.0 mm/hr 0.00 in0.0 mm
09:10 AM 68.2°F20.1°C 30.0°F-1.1°C 24% 7.0 mph NNW11.3 kmh NNW 11.6 mph18.7 kmh 25.07 in849.0 mb 0.00 in0.0 mm 0.00 in/hr0.0 mm/hr 0.00 in0.0 mm
09:05 AM 68.5°F20.3°C 31.3°F-0.4°C 25% 7.0 mph N11.3 kmh N 12.1 mph19.5 kmh 25.07 in849.0 mb 0.00 in0.0 mm 0.00 in/hr0.0 mm/hr 0.00 in0.0 mm
09:00 AM 67.8°F19.9°C 31.6°F-0.2°C 26% 7.0 mph N11.3 kmh N 11.6 mph18.7 kmh 25.07 in849.0 mb 0.00 in0.0 mm 0.00 in/hr0.0 mm/hr 0.00 in0.0 mm
08:55 AM 67.6°F19.8°C 32.5°F0.3°C 27% 7.0 mph N11.3 kmh N 10.1 mph16.3 kmh 25.07 in849.0 mb 0.00 in0.0 mm 0.00 in/hr0.0 mm/hr 0.00 in0.0 mm
08:50 AM 67.1°F19.5°C 32.9°F0.5°C 28% 7.0 mph N11.3 kmh N 9.2 mph14.8 kmh 25.07 in849.0 mb 0.00 in0.0 mm 0.00 in/hr0.0 mm/hr 0.00 in0.0 mm
08:45 AM 66.6°F19.2°C 33.3°F0.7°C 29% 8.0 mph N12.9 kmh N 11.6 mph18.7 kmh 25.07 in849.0 mb 0.00 in0.0 mm 0.00 in/hr0.0 mm/hr 0.00 in0.0 mm
08:40 AM 66.0°F18.9°C 33.6°F0.9°C 30% 8.0 mph N12.9 kmh N 11.0 mph17.7 kmh 25.07 in849.0 mb 0.00 in0.0 mm 0.00 in/hr0.0 mm/hr 0.00 in0.0 mm
08:35 AM 65.8°F18.8°C 35.2°F1.8°C 32% 8.0 mph N12.9 kmh N 12.1 mph19.5 kmh 25.07 in849.0 mb 0.00 in0.0 mm 0.00 in/hr0.0 mm/hr 0.00 in0.0 mm
08:30 AM 64.9°F18.3°C 35.1°F1.7°C 33% 7.0 mph NNW11.3 kmh NNW 11.0 mph17.7 kmh 25.07 in849.0 mb 0.00 in0.0 mm 0.00 in/hr0.0 mm/hr 0.00 in0.0 mm
08:25 AM 64.6°F18.1°C 34.9°F1.6°C 33% 5.0 mph NNW8.0 kmh NNW 7.8 mph12.6 kmh 25.07 in849.0 mb 0.00 in0.0 mm 0.00 in/hr0.0 mm/hr 0.00 in0.0 mm
08:20 AM 64.4°F18.0°C 34.7°F1.5°C 33% 4.0 mph NNW6.4 kmh NNW 6.7 mph10.8 kmh 25.07 in849.0 mb 0.00 in0.0 mm 0.00 in/hr0.0 mm/hr 0.00 in0.0 mm
08:15 AM 64.8°F18.2°C 35.8°F2.1°C 34% 4.0 mph NNW6.4 kmh NNW 5.8 mph9.3 kmh 25.07 in849.0 mb 0.00 in0.0 mm 0.00 in/hr0.0 mm/hr 0.00 in0.0 mm
08:10 AM 63.9°F17.7°C 34.2°F1.2°C 33% 4.0 mph NNW6.4 kmh NNW 5.8 mph9.3 kmh 25.07 in849.0 mb 0.00 in0.0 mm 0.00 in/hr0.0 mm/hr 0.00 in0.0 mm
08:05 AM 64.0°F17.8°C 35.1°F1.7°C 34% 4.0 mph NNW6.4 kmh NNW 5.4 mph8.7 kmh 25.07 in849.0 mb 0.00 in0.0 mm 0.00 in/hr0.0 mm/hr 0.00 in0.0 mm
08:00 AM 63.7°F17.6°C 34.7°F1.5°C 34% 5.0 mph NNW8.0 kmh NNW 6.9 mph11.1 kmh 25.07 in849.0 mb 0.00 in0.0 mm 0.00 in/hr0.0 mm/hr 0.00 in0.0 mm
07:55 AM 63.3°F17.4°C 35.2°F1.8°C 35% 5.0 mph NW8.0 kmh NW 6.9 mph11.1 kmh 25.07 in849.0 mb 0.00 in0.0 mm 0.00 in/hr0.0 mm/hr 0.00 in0.0 mm
07:50 AM 63.0°F17.2°C 34.9°F1.6°C 35% 4.0 mph NNW6.4 kmh NNW 6.3 mph10.1 kmh 25.07 in849.0 mb 0.00 in0.0 mm 0.00 in/hr0.0 mm/hr 0.00 in0.0 mm
07:45 AM 62.4°F16.9°C 35.1°F1.7°C 36% 4.0 mph N6.4 kmh N 5.8 mph9.3 kmh 25.07 in849.0 mb 0.00 in0.0 mm 0.00 in/hr0.0 mm/hr 0.00 in0.0 mm
07:40 AM 61.5°F16.4°C 35.6°F2.0°C 38% 4.0 mph NNW6.4 kmh NNW 6.9 mph11.1 kmh 25.07 in849.0 mb 0.00 in0.0 mm 0.00 in/hr0.0 mm/hr 0.00 in0.0 mm
07:35 AM 60.1°F15.6°C 35.1°F1.7°C 39% 4.0 mph N6.4 kmh N 5.8 mph9.3 kmh 25.07 in849.0 mb 0.00 in0.0 mm 0.00 in/hr0.0 mm/hr 0.00 in0.0 mm
07:30 AM 59.5°F15.3°C 34.5°F1.4°C 39% 3.0 mph N4.8 kmh N 4.5 mph7.2 kmh 25.07 in849.0 mb 0.00 in0.0 mm 0.00 in/hr0.0 mm/hr 0.00 in0.0 mm
07:25 AM 59.2°F15.1°C 33.6°F0.9°C 38% 3.0 mph N4.8 kmh N 4.5 mph7.2 kmh 25.07 in849.0 mb 0.00 in0.0 mm 0.00 in/hr0.0 mm/hr 0.00 in0.0 mm
07:20 AM 59.4°F15.2°C 33.8°F1.0°C 38% 3.0 mph N4.8 kmh N 4.9 mph7.9 kmh 25.07 in849.0 mb 0.00 in0.0 mm 0.00 in/hr0.0 mm/hr 0.00 in0.0 mm
07:15 AM 60.1°F15.6°C 33.8°F1.0°C 37% 4.0 mph N6.4 kmh N 5.4 mph8.7 kmh 25.07 in849.0 mb 0.00 in0.0 mm 0.00 in/hr0.0 mm/hr 0.00 in0.0 mm
07:10 AM 60.4°F15.8°C 34.0°F1.1°C 37% 4.0 mph N6.4 kmh N 5.4 mph8.7 kmh 25.07 in849.0 mb 0.00 in0.0 mm 0.00 in/hr0.0 mm/hr 0.00 in0.0 mm
07:05 AM 60.6°F15.9°C 34.9°F1.6°C 38% 2.0 mph N3.2 kmh N 6.7 mph10.8 kmh 25.07 in849.0 mb 0.00 in0.0 mm 0.00 in/hr0.0 mm/hr 0.00 in0.0 mm
07:00 AM 58.1°F14.5°C 35.1°F1.7°C 42% Calm Calm 4.9 mph7.9 kmh 25.04 in848.0 mb 0.00 in0.0 mm 0.00 in/hr0.0 mm/hr 0.00 in0.0 mm
06:55 AM 57.6°F14.2°C 35.2°F1.8°C 43% Calm Calm -- 25.04 in848.0 mb 0.00 in0.0 mm 0.00 in/hr0.0 mm/hr 0.00 in0.0 mm
06:50 AM 57.6°F14.2°C 35.2°F1.8°C 43% Calm Calm 2.7 mph4.3 kmh 25.04 in848.0 mb 0.00 in0.0 mm 0.00 in/hr0.0 mm/hr 0.00 in0.0 mm
06:45 AM 57.6°F14.2°C 34.7°F1.5°C 42% Calm Calm 3.6 mph5.8 kmh 25.04 in848.0 mb 0.00 in0.0 mm 0.00 in/hr0.0 mm/hr 0.00 in0.0 mm
06:40 AM 57.7°F14.3°C 34.2°F1.2°C 41% 2.0 mph N3.2 kmh N 4.0 mph6.4 kmh 25.04 in848.0 mb 0.00 in0.0 mm 0.00 in/hr0.0 mm/hr 0.00 in0.0 mm
06:35 AM 58.3°F14.6°C 34.0°F1.1°C 40% 2.0 mph NNW3.2 kmh NNW 4.5 mph7.2 kmh 25.04 in848.0 mb 0.00 in0.0 mm 0.00 in/hr0.0 mm/hr 0.00 in0.0 mm
06:30 AM 58.8°F14.9°C 34.0°F1.1°C 39% 2.0 mph NNW3.2 kmh NNW 4.0 mph6.4 kmh 25.04 in848.0 mb 0.00 in0.0 mm 0.00 in/hr0.0 mm/hr 0.00 in0.0 mm
06:25 AM 59.7°F15.4°C 33.4°F0.8°C 37% 3.0 mph NNW4.8 kmh NNW 4.0 mph6.4 kmh 25.04 in848.0 mb 0.00 in0.0 mm 0.00 in/hr0.0 mm/hr 0.00 in0.0 mm
06:20 AM 60.8°F16.0°C 34.3°F1.3°C 37% 5.0 mph N8.0 kmh N 6.3 mph10.1 kmh 25.04 in848.0 mb 0.00 in0.0 mm 0.00 in/hr0.0 mm/hr 0.00 in0.0 mm
06:15 AM 59.9°F15.5°C 34.9°F1.6°C 39% 4.0 mph NNW6.4 kmh NNW 6.7 mph10.8 kmh 25.04 in848.0 mb 0.00 in0.0 mm 0.00 in/hr0.0 mm/hr 0.00 in0.0 mm
06:10 AM 58.8°F14.9°C 34.5°F1.4°C 40% 1.0 mph W1.6 kmh W 6.3 mph10.1 kmh 25.04 in848.0 mb 0.00 in0.0 mm 0.00 in/hr0.0 mm/hr 0.00 in0.0 mm
06:05 AM 58.1°F14.5°C 34.5°F1.4°C 41% Calm Calm 3.1 mph5.0 kmh 25.04 in848.0 mb 0.00 in0.0 mm 0.00 in/hr0.0 mm/hr 0.00 in0.0 mm
06:00 AM 58.1°F14.5°C 34.0°F1.1°C 40% Calm Calm -- 25.04 in848.0 mb 0.00 in0.0 mm 0.00 in/hr0.0 mm/hr 0.00 in0.0 mm
05:55 AM 58.3°F14.6°C 34.0°F1.1°C 40% Calm Calm 3.1 mph5.0 kmh 25.04 in848.0 mb 0.00 in0.0 mm 0.00 in/hr0.0 mm/hr 0.00 in0.0 mm
05:50 AM 58.3°F14.6°C 34.0°F1.1°C 40% Calm Calm 4.0 mph6.4 kmh 25.04 in848.0 mb 0.00 in0.0 mm 0.00 in/hr0.0 mm/hr 0.00 in0.0 mm
05:45 AM 58.5°F14.7°C 33.6°F0.9°C 39% Calm Calm 3.1 mph5.0 kmh 25.04 in848.0 mb 0.00 in0.0 mm 0.00 in/hr0.0 mm/hr 0.00 in0.0 mm
05:40 AM 58.8°F14.9°C 34.0°F1.1°C 39% 1.0 mph W1.6 kmh W 3.6 mph5.8 kmh 25.04 in848.0 mb 0.00 in0.0 mm 0.00 in/hr0.0 mm/hr 0.00 in0.0 mm
05:35 AM 58.3°F14.6°C 33.4°F0.8°C 39% 1.0 mph W1.6 kmh W 4.0 mph6.4 kmh 25.04 in848.0 mb 0.00 in0.0 mm 0.00 in/hr0.0 mm/hr 0.00 in0.0 mm
05:30 AM 58.5°F14.7°C 32.9°F0.5°C 38% 1.0 mph W1.6 kmh W 3.6 mph5.8 kmh 25.04 in848.0 mb 0.00 in0.0 mm 0.00 in/hr0.0 mm/hr 0.00 in0.0 mm
05:25 AM 58.8°F14.9°C 32.0°F0.0°C 36% Calm Calm 3.1 mph5.0 kmh 25.04 in848.0 mb 0.00 in0.0 mm 0.00 in/hr0.0 mm/hr 0.00 in0.0 mm
05:20 AM 59.2°F15.1°C 31.5°F-0.3°C 35% Calm Calm 3.1 mph5.0 kmh 25.04 in848.0 mb 0.00 in0.0 mm 0.00 in/hr0.0 mm/hr 0.00 in0.0 mm
05:15 AM 59.9°F15.5°C 32.2°F0.1°C 35% 1.0 mph W1.6 kmh W 3.6 mph5.8 kmh 25.04 in848.0 mb 0.00 in0.0 mm 0.00 in/hr0.0 mm/hr 0.00 in0.0 mm
05:10 AM 61.0°F16.1°C 32.4°F0.2°C 34% Calm Calm 3.1 mph5.0 kmh 25.04 in848.0 mb 0.00 in0.0 mm 0.00 in/hr0.0 mm/hr 0.00 in0.0 mm
05:05 AM 62.2°F16.8°C 31.3°F-0.4°C 31% Calm Calm 3.1 mph5.0 kmh 25.04 in848.0 mb 0.00 in0.0 mm 0.00 in/hr0.0 mm/hr 0.00 in0.0 mm
04:59 AM 63.5°F17.5°C 30.7°F-0.7°C 29% Calm Calm 3.1 mph5.0 kmh 25.04 in848.0 mb 0.00 in0.0 mm 0.00 in/hr0.0 mm/hr 0.00 in0.0 mm
04:54 AM 63.1°F17.3°C 32.0°F0.0°C 31% 1.0 mph W1.6 kmh W 4.5 mph7.2 kmh 25.04 in848.0 mb 0.00 in0.0 mm 0.00 in/hr0.0 mm/hr 0.00 in0.0 mm
04:49 AM 61.5°F16.4°C 32.9°F0.5°C 34% 1.0 mph W1.6 kmh W 4.5 mph7.2 kmh 25.04 in848.0 mb 0.00 in0.0 mm 0.00 in/hr0.0 mm/hr 0.00 in0.0 mm
04:44 AM 61.0°F16.1°C 32.4°F0.2°C 34% 1.0 mph W1.6 kmh W 4.5 mph7.2 kmh 25.04 in848.0 mb 0.00 in0.0 mm 0.00 in/hr0.0 mm/hr 0.00 in0.0 mm
04:39 AM 61.5°F16.4°C 32.9°F0.5°C 34% 2.0 mph WSW3.2 kmh WSW 4.5 mph7.2 kmh 25.04 in848.0 mb 0.00 in0.0 mm 0.00 in/hr0.0 mm/hr 0.00 in0.0 mm
04:34 AM 61.7°F16.5°C 32.4°F0.2°C 33% 2.0 mph WSW3.2 kmh WSW 4.0 mph6.4 kmh 25.04 in848.0 mb 0.00 in0.0 mm 0.00 in/hr0.0 mm/hr 0.00 in0.0 mm
04:29 AM 61.7°F16.5°C 33.1°F0.6°C 34% 2.0 mph WSW3.2 kmh WSW 4.0 mph6.4 kmh 25.04 in848.0 mb 0.00 in0.0 mm 0.00 in/hr0.0 mm/hr 0.00 in0.0 mm
04:24 AM 61.7°F16.5°C 32.4°F0.2°C 33% 2.0 mph WSW3.2 kmh WSW 5.4 mph8.7 kmh 25.04 in848.0 mb 0.00 in0.0 mm 0.00 in/hr0.0 mm/hr 0.00 in0.0 mm
04:19 AM 61.7°F16.5°C 32.4°F0.2°C 33% 1.0 mph WSW1.6 kmh WSW 3.6 mph5.8 kmh 25.04 in848.0 mb 0.00 in0.0 mm 0.00 in/hr0.0 mm/hr 0.00 in0.0 mm
04:14 AM 60.8°F16.0°C 31.5°F-0.3°C 33% 1.0 mph WSW1.6 kmh WSW 3.1 mph5.0 kmh 25.04 in848.0 mb 0.00 in0.0 mm 0.00 in/hr0.0 mm/hr 0.00 in0.0 mm
04:09 AM 61.9°F16.6°C 30.9°F-0.6°C 31% 1.0 mph WSW1.6 kmh WSW 4.0 mph6.4 kmh 25.04 in848.0 mb 0.00 in0.0 mm 0.00 in/hr0.0 mm/hr 0.00 in0.0 mm
04:04 AM 62.4°F16.9°C 30.6°F-0.8°C 30% 1.0 mph WSW1.6 kmh WSW 2.7 mph4.3 kmh 25.04 in848.0 mb 0.00 in0.0 mm 0.00 in/hr0.0 mm/hr 0.00 in0.0 mm
03:59 AM 62.4°F16.9°C 30.6°F-0.8°C 30% 2.0 mph WSW3.2 kmh WSW 4.5 mph7.2 kmh 25.04 in848.0 mb 0.00 in0.0 mm 0.00 in/hr0.0 mm/hr 0.00 in0.0 mm
03:54 AM 62.4°F16.9°C 30.6°F-0.8°C 30% 3.0 mph WSW4.8 kmh WSW 4.5 mph7.2 kmh 25.04 in848.0 mb 0.00 in0.0 mm 0.00 in/hr0.0 mm/hr 0.00 in0.0 mm
03:49 AM 62.2°F16.8°C 30.4°F-0.9°C 30% 2.0 mph WSW3.2 kmh WSW 4.9 mph7.9 kmh 25.04 in848.0 mb 0.00 in0.0 mm 0.00 in/hr0.0 mm/hr 0.00 in0.0 mm
03:44 AM 62.4°F16.9°C 29.7°F-1.3°C 29% 2.0 mph WSW3.2 kmh WSW 4.5 mph7.2 kmh 25.04 in848.0 mb 0.00 in0.0 mm 0.00 in/hr0.0 mm/hr 0.00 in0.0 mm
03:39 AM 63.0°F17.2°C 29.3°F-1.5°C 28% 2.0 mph WSW3.2 kmh WSW 4.5 mph7.2 kmh 25.04 in848.0 mb 0.00 in0.0 mm 0.00 in/hr0.0 mm/hr 0.00 in0.0 mm
03:34 AM 63.9°F17.7°C 28.2°F-2.1°C 26% 1.0 mph WSW1.6 kmh WSW 3.6 mph5.8 kmh 25.04 in848.0 mb 0.00 in0.0 mm 0.00 in/hr0.0 mm/hr 0.00 in0.0 mm
03:29 AM 63.9°F17.7°C 28.2°F-2.1°C 26% 2.0 mph WSW3.2 kmh WSW 5.8 mph9.3 kmh 25.04 in848.0 mb 0.00 in0.0 mm 0.00 in/hr0.0 mm/hr 0.00 in0.0 mm
03:24 AM 64.2°F17.9°C 27.7°F-2.4°C 25% 1.0 mph ENE1.6 kmh ENE 6.9 mph11.1 kmh 25.04 in848.0 mb 0.00 in0.0 mm 0.00 in/hr0.0 mm/hr 0.00 in0.0 mm
03:19 AM 64.8°F18.2°C 28.0°F-2.2°C 25% Calm Calm -- 25.04 in848.0 mb 0.00 in0.0 mm 0.00 in/hr0.0 mm/hr 0.00 in0.0 mm
03:14 AM 64.0°F17.8°C 27.5°F-2.5°C 25% Calm Calm 3.1 mph5.0 kmh 25.04 in848.0 mb 0.00 in0.0 mm 0.00 in/hr0.0 mm/hr 0.00 in0.0 mm
03:09 AM 63.7°F17.6°C 27.1°F-2.7°C 25% Calm Calm -- 25.04 in848.0 mb 0.00 in0.0 mm 0.00 in/hr0.0 mm/hr 0.00 in0.0 mm
03:04 AM 63.9°F17.7°C 27.3°F-2.6°C 25% 2.0 mph ENE3.2 kmh ENE 4.9 mph7.9 kmh 25.04 in848.0 mb 0.00 in0.0 mm 0.00 in/hr0.0 mm/hr 0.00 in0.0 mm
02:59 AM 64.9°F18.3°C 28.2°F-2.1°C 25% 2.0 mph NE3.2 kmh NE 4.9 mph7.9 kmh 25.04 in848.0 mb 0.00 in0.0 mm 0.00 in/hr0.0 mm/hr 0.00 in0.0 mm
02:54 AM 65.5°F18.6°C 27.7°F-2.4°C 24% 2.0 mph NE3.2 kmh NE 4.5 mph7.2 kmh 25.04 in848.0 mb 0.00 in0.0 mm 0.00 in/hr0.0 mm/hr 0.00 in0.0 mm
02:49 AM 64.9°F18.3°C 28.2°F-2.1°C 25% 2.0 mph NE3.2 kmh NE 6.7 mph10.8 kmh 25.04 in848.0 mb 0.00 in0.0 mm 0.00 in/hr0.0 mm/hr 0.00 in0.0 mm
02:44 AM 65.3°F18.5°C 27.5°F-2.5°C 24% 2.0 mph ENE3.2 kmh ENE 4.0 mph6.4 kmh 25.04 in848.0 mb 0.00 in0.0 mm 0.00 in/hr0.0 mm/hr 0.00 in0.0 mm
02:39 AM 65.7°F18.7°C 26.8°F-2.9°C 23% 2.0 mph ENE3.2 kmh ENE 5.8 mph9.3 kmh 25.04 in848.0 mb 0.00 in0.0 mm 0.00 in/hr0.0 mm/hr 0.00 in0.0 mm
02:34 AM 66.6°F19.2°C 27.7°F-2.4°C 23% 1.0 mph NE1.6 kmh NE 4.5 mph7.2 kmh 25.04 in848.0 mb 0.00 in0.0 mm 0.00 in/hr0.0 mm/hr 0.00 in0.0 mm
02:29 AM 67.6°F19.8°C 27.5°F-2.5°C 22% 1.0 mph NE1.6 kmh NE 4.9 mph7.9 kmh 25.04 in848.0 mb 0.00 in0.0 mm 0.00 in/hr0.0 mm/hr 0.00 in0.0 mm
02:24 AM 67.6°F19.8°C 27.5°F-2.5°C 22% Calm Calm 3.1 mph5.0 kmh 25.04 in848.0 mb 0.00 in0.0 mm 0.00 in/hr0.0 mm/hr 0.00 in0.0 mm
02:19 AM 66.6°F19.2°C 27.7°F-2.4°C 23% Calm Calm -- 25.04 in848.0 mb 0.00 in0.0 mm 0.00 in/hr0.0 mm/hr 0.00 in0.0 mm
02:14 AM 66.2°F19.0°C 27.3°F-2.6°C 23% Calm Calm 3.1 mph5.0 kmh 25.04 in848.0 mb 0.00 in0.0 mm 0.00 in/hr0.0 mm/hr 0.00 in0.0 mm
02:09 AM 66.2°F19.0°C 28.4°F-2.0°C 24% 2.0 mph NE3.2 kmh NE 3.1 mph5.0 kmh 25.04 in848.0 mb 0.00 in0.0 mm 0.00 in/hr0.0 mm/hr 0.00 in0.0 mm
02:04 AM 65.5°F18.6°C 27.7°F-2.4°C 24% 2.0 mph NE3.2 kmh NE 4.5 mph7.2 kmh 25.04 in848.0 mb 0.00 in0.0 mm 0.00 in/hr0.0 mm/hr 0.00 in0.0 mm
01:59 AM 65.5°F18.6°C 27.7°F-2.4°C 24% 2.0 mph NNE3.2 kmh NNE 4.0 mph6.4 kmh 25.04 in848.0 mb 0.00 in0.0 mm 0.00 in/hr0.0 mm/hr 0.00 in0.0 mm
01:54 AM 66.0°F18.9°C 27.1°F-2.7°C 23% 3.0 mph N4.8 kmh N 4.5 mph7.2 kmh 25.04 in848.0 mb 0.00 in0.0 mm 0.00 in/hr0.0 mm/hr 0.00 in0.0 mm
01:49 AM 66.7°F19.3°C 27.7°F-2.4°C 23% 3.0 mph N4.8 kmh N 4.5 mph7.2 kmh 25.04 in848.0 mb 0.00 in0.0 mm 0.00 in/hr0.0 mm/hr 0.00 in0.0 mm
01:44 AM 67.8°F19.9°C 27.5°F-2.5°C 22% 3.0 mph N4.8 kmh N 5.4 mph8.7 kmh 25.04 in848.0 mb 0.00 in0.0 mm 0.00 in/hr0.0 mm/hr 0.00 in0.0 mm
01:39 AM 68.7°F20.4°C 26.1°F-3.3°C 20% 4.0 mph N6.4 kmh N 5.4 mph8.7 kmh 25.04 in848.0 mb 0.00 in0.0 mm 0.00 in/hr0.0 mm/hr 0.00 in0.0 mm
01:34 AM 68.4°F20.2°C 28.0°F-2.2°C 22% 3.0 mph ENE4.8 kmh ENE 5.8 mph9.3 kmh 25.04 in848.0 mb 0.00 in0.0 mm 0.00 in/hr0.0 mm/hr 0.00 in0.0 mm
01:29 AM 65.8°F18.8°C 28.0°F-2.2°C 24% 2.0 mph ESE3.2 kmh ESE 4.0 mph6.4 kmh 25.04 in848.0 mb 0.00 in0.0 mm 0.00 in/hr0.0 mm/hr 0.00 in0.0 mm
01:24 AM 66.6°F19.2°C 27.7°F-2.4°C 23% 1.0 mph ESE1.6 kmh ESE 3.6 mph5.8 kmh 25.04 in848.0 mb 0.00 in0.0 mm 0.00 in/hr0.0 mm/hr 0.00 in0.0 mm
01:19 AM 68.0°F20.0°C 27.7°F-2.4°C 22% 1.0 mph ESE1.6 kmh ESE 2.7 mph4.3 kmh 25.04 in848.0 mb 0.00 in0.0 mm 0.00 in/hr0.0 mm/hr 0.00 in0.0 mm
01:14 AM 68.0°F20.0°C 28.8°F-1.8°C 23% 1.0 mph ESE1.6 kmh ESE 4.5 mph7.2 kmh 25.04 in848.0 mb 0.00 in0.0 mm 0.00 in/hr0.0 mm/hr 0.00 in0.0 mm
01:09 AM 66.7°F19.3°C 28.8°F-1.8°C 24% Calm Calm 3.6 mph5.8 kmh 25.04 in848.0 mb 0.00 in0.0 mm 0.00 in/hr0.0 mm/hr 0.00 in0.0 mm
01:04 AM 66.4°F19.1°C 28.6°F-1.9°C 24% Calm Calm -- 25.04 in848.0 mb 0.00 in0.0 mm 0.00 in/hr0.0 mm/hr 0.00 in0.0 mm
12:59 AM 66.0°F18.9°C 29.1°F-1.6°C 25% Calm Calm -- 25.04 in848.0 mb 0.00 in0.0 mm 0.00 in/hr0.0 mm/hr 0.00 in0.0 mm
12:54 AM 66.2°F19.0°C 30.4°F-0.9°C 26% Calm Calm 2.7 mph4.3 kmh 25.04 in848.0 mb 0.00 in0.0 mm 0.00 in/hr0.0 mm/hr 0.00 in0.0 mm
12:49 AM 66.0°F18.9°C 30.2°F-1.0°C 26% Calm Calm 2.7 mph4.3 kmh 25.04 in848.0 mb 0.00 in0.0 mm 0.00 in/hr0.0 mm/hr 0.00 in0.0 mm
12:44 AM 66.6°F19.2°C 30.6°F-0.8°C 26% Calm Calm 2.7 mph4.3 kmh 25.04 in848.0 mb 0.00 in0.0 mm 0.00 in/hr0.0 mm/hr 0.00 in0.0 mm
12:39 AM 66.9°F19.4°C 30.0°F-1.1°C 25% Calm Calm -- 25.04 in848.0 mb 0.00 in0.0 mm 0.00 in/hr0.0 mm/hr 0.00 in0.0 mm
12:34 AM 66.6°F19.2°C 30.6°F-0.8°C 26% Calm Calm 2.7 mph4.3 kmh 25.04 in848.0 mb 0.00 in0.0 mm 0.00 in/hr0.0 mm/hr 0.00 in0.0 mm
12:29 AM 66.0°F18.9°C 31.1°F-0.5°C 27% Calm Calm 2.7 mph4.3 kmh 25.04 in848.0 mb 0.00 in0.0 mm 0.00 in/hr0.0 mm/hr 0.00 in0.0 mm
12:24 AM 65.8°F18.8°C 30.9°F-0.6°C 27% 1.0 mph ESE1.6 kmh ESE 3.6 mph5.8 kmh 25.04 in848.0 mb 0.00 in0.0 mm 0.00 in/hr0.0 mm/hr 0.00 in0.0 mm
12:19 AM 65.7°F18.7°C 30.7°F-0.7°C 27% 1.0 mph SE1.6 kmh SE 5.4 mph8.7 kmh 25.04 in848.0 mb 0.00 in0.0 mm 0.00 in/hr0.0 mm/hr 0.00 in0.0 mm
12:14 AM 67.5°F19.7°C 31.5°F-0.3°C 26% Calm Calm 4.9 mph7.9 kmh 25.04 in848.0 mb 0.00 in0.0 mm 0.00 in/hr0.0 mm/hr 0.00 in0.0 mm
12:09 AM 67.8°F19.9°C 28.6°F-1.9°C 23% 1.0 mph S1.6 kmh S 3.1 mph5.0 kmh 25.04 in848.0 mb 0.00 in0.0 mm 0.00 in/hr0.0 mm/hr 0.00 in0.0 mm
12:04 AM 67.5°F19.7°C 30.4°F-0.9°C 25% 2.0 mph S3.2 kmh S 4.0 mph6.4 kmh 25.04 in848.0 mb 0.00 in0.0 mm 0.00 in/hr0.0 mm/hr 0.00 in0.0 mm